sensor_id;sensor_type;location;lat;lon;timestamp;pressure;altitude;pressure_sealevel;temperature;humidity
3294;BME280;1659;51.470;6.770;2022-12-18T00:01:58;102755.97;;;-6.35;91.04
3294;BME280;1659;51.470;6.770;2022-12-18T00:04:26;102758.81;;;-6.32;91.15
3294;BME280;1659;51.470;6.770;2022-12-18T00:06:53;102768.56;;;-6.28;90.89
3294;BME280;1659;51.470;6.770;2022-12-18T00:09:20;102783.59;;;-6.22;91.06
3294;BME280;1659;51.470;6.770;2022-12-18T00:11:46;102778.19;;;-6.15;90.97
3294;BME280;1659;51.470;6.770;2022-12-18T00:14:13;102782.56;;;-6.14;91.04
3294;BME280;1659;51.470;6.770;2022-12-18T00:16:43;102776.25;;;-6.08;90.66
3294;BME280;1659;51.470;6.770;2022-12-18T00:19:11;102779.19;;;-6.03;90.69
3294;BME280;1659;51.470;6.770;2022-12-18T00:21:38;102771.25;;;-5.94;91.01
3294;BME280;1659;51.470;6.770;2022-12-18T00:24:08;102764.31;;;-5.85;90.97
3294;BME280;1659;51.470;6.770;2022-12-18T00:26:36;102757.28;;;-5.76;90.94
3294;BME280;1659;51.470;6.770;2022-12-18T00:29:04;102743.38;;;-5.67;90.62
3294;BME280;1659;51.470;6.770;2022-12-18T00:31:31;102741.50;;;-5.58;90.75
3294;BME280;1659;51.470;6.770;2022-12-18T00:33:58;102746.22;;;-5.53;90.39
3294;BME280;1659;51.470;6.770;2022-12-18T00:36:28;102755.34;;;-5.46;90.63
3294;BME280;1659;51.470;6.770;2022-12-18T00:38:56;102749.63;;;-5.42;90.13
3294;BME280;1659;51.470;6.770;2022-12-18T00:41:24;102759.94;;;-5.42;90.33
3294;BME280;1659;51.470;6.770;2022-12-18T00:44:10;102761.25;;;-5.47;90.14
3294;BME280;1659;51.470;6.770;2022-12-18T00:46:37;102767.09;;;-5.50;90.23
3294;BME280;1659;51.470;6.770;2022-12-18T00:49:04;102763.13;;;-5.56;90.40
3294;BME280;1659;51.470;6.770;2022-12-18T00:51:32;102762.53;;;-5.64;90.29
3294;BME280;1659;51.470;6.770;2022-12-18T00:53:59;102753.97;;;-5.75;90.70
3294;BME280;1659;51.470;6.770;2022-12-18T00:56:25;102758.13;;;-5.87;90.58
3294;BME280;1659;51.470;6.770;2022-12-18T00:58:52;102761.66;;;-5.97;90.71
3294;BME280;1659;51.470;6.770;2022-12-18T01:01:19;102762.91;;;-5.92;91.29
3294;BME280;1659;51.470;6.770;2022-12-18T01:03:45;102761.31;;;-5.79;91.42
3294;BME280;1659;51.470;6.770;2022-12-18T01:06:13;102764.47;;;-5.72;91.11
3294;BME280;1659;51.470;6.770;2022-12-18T01:08:42;102770.91;;;-5.66;90.90
3294;BME280;1659;51.470;6.770;2022-12-18T01:11:10;102769.88;;;-5.69;91.02
3294;BME280;1659;51.470;6.770;2022-12-18T01:13:37;102760.38;;;-5.70;90.80
3294;BME280;1659;51.470;6.770;2022-12-18T01:16:04;102760.25;;;-5.71;90.88
3294;BME280;1659;51.470;6.770;2022-12-18T01:18:31;102761.13;;;-5.71;90.65
3294;BME280;1659;51.470;6.770;2022-12-18T01:20:57;102754.69;;;-5.65;91.34
3294;BME280;1659;51.470;6.770;2022-12-18T01:23:24;102757.63;;;-5.61;91.27
3294;BME280;1659;51.470;6.770;2022-12-18T01:25:54;102749.78;;;-5.62;91.18
3294;BME280;1659;51.470;6.770;2022-12-18T01:28:21;102743.06;;;-5.60;91.07
3294;BME280;1659;51.470;6.770;2022-12-18T01:30:47;102754.38;;;-5.58;91.13
3294;BME280;1659;51.470;6.770;2022-12-18T01:33:14;102748.56;;;-5.56;90.94
3294;BME280;1659;51.470;6.770;2022-12-18T01:35:41;102748.69;;;-5.54;91.01
3294;BME280;1659;51.470;6.770;2022-12-18T01:38:08;102746.34;;;-5.51;90.83
3294;BME280;1659;51.470;6.770;2022-12-18T01:40:34;102753.44;;;-5.48;90.80
3294;BME280;1659;51.470;6.770;2022-12-18T01:43:03;102752.06;;;-5.55;90.82
3294;BME280;1659;51.470;6.770;2022-12-18T01:45:31;102749.53;;;-5.65;90.56
3294;BME280;1659;51.470;6.770;2022-12-18T01:47:59;102746.13;;;-5.76;90.47
3294;BME280;1659;51.470;6.770;2022-12-18T01:50:31;102746.03;;;-5.88;90.59
3294;BME280;1659;51.470;6.770;2022-12-18T01:53:01;102751.13;;;-6.00;90.67
3294;BME280;1659;51.470;6.770;2022-12-18T01:55:30;102762.59;;;-6.07;90.64
3294;BME280;1659;51.470;6.770;2022-12-18T01:57:58;102762.88;;;-6.14;91.06
3294;BME280;1659;51.470;6.770;2022-12-18T02:00:27;102753.13;;;-6.18;91.14
3294;BME280;1659;51.470;6.770;2022-12-18T02:02:54;102762.38;;;-6.10;91.46
3294;BME280;1659;51.470;6.770;2022-12-18T02:05:26;102757.56;;;-6.05;91.49
3294;BME280;1659;51.470;6.770;2022-12-18T02:08:03;102747.47;;;-5.92;91.55
3294;BME280;1659;51.470;6.770;2022-12-18T02:10:37;102751.00;;;-5.79;91.60
3294;BME280;1659;51.470;6.770;2022-12-18T02:13:10;102754.69;;;-5.65;91.54
3294;BME280;1659;51.470;6.770;2022-12-18T02:15:45;102757.34;;;-5.54;90.91
3294;BME280;1659;51.470;6.770;2022-12-18T02:18:19;102761.63;;;-5.42;90.73
3294;BME280;1659;51.470;6.770;2022-12-18T02:20:49;102760.44;;;-5.36;90.78
3294;BME280;1659;51.470;6.770;2022-12-18T02:23:27;102750.50;;;-5.31;90.62
3294;BME280;1659;51.470;6.770;2022-12-18T02:26:07;102745.03;;;-5.24;90.71
3294;BME280;1659;51.470;6.770;2022-12-18T02:28:41;102734.06;;;-5.21;90.74
3294;BME280;1659;51.470;6.770;2022-12-18T02:31:11;102731.47;;;-5.21;90.18
3294;BME280;1659;51.470;6.770;2022-12-18T02:33:41;102731.34;;;-5.23;90.52
3294;BME280;1659;51.470;6.770;2022-12-18T02:36:11;102731.34;;;-5.23;90.21
3294;BME280;1659;51.470;6.770;2022-12-18T02:38:41;102735.25;;;-5.28;90.33
3294;BME280;1659;51.470;6.770;2022-12-18T02:41:10;102739.94;;;-5.34;90.67
3294;BME280;1659;51.470;6.770;2022-12-18T02:43:37;102751.44;;;-5.41;90.40
3294;BME280;1659;51.470;6.770;2022-12-18T02:46:25;102750.97;;;-5.47;90.98
3294;BME280;1659;51.470;6.770;2022-12-18T02:48:55;102756.41;;;-5.54;90.71
3294;BME280;1659;51.470;6.770;2022-12-18T02:51:29;102747.53;;;-5.58;91.10
3294;BME280;1659;51.470;6.770;2022-12-18T02:54:05;102743.94;;;-5.60;90.86
3294;BME280;1659;51.470;6.770;2022-12-18T02:56:39;102745.34;;;-5.53;91.00
3294;BME280;1659;51.470;6.770;2022-12-18T02:59:09;102745.94;;;-5.45;90.98
3294;BME280;1659;51.470;6.770;2022-12-18T03:01:43;102740.72;;;-5.35;90.93
3294;BME280;1659;51.470;6.770;2022-12-18T03:04:17;102740.41;;;-5.28;91.08
3294;BME280;1659;51.470;6.770;2022-12-18T03:06:48;102737.94;;;-5.26;90.64
3294;BME280;1659;51.470;6.770;2022-12-18T03:09:20;102740.66;;;-5.25;90.61
3294;BME280;1659;51.470;6.770;2022-12-18T03:11:54;102737.31;;;-5.24;90.88
3294;BME280;1659;51.470;6.770;2022-12-18T03:14:40;102725.56;;;-5.20;90.90
3294;BME280;1659;51.470;6.770;2022-12-18T03:17:13;102716.13;;;-5.20;90.73
3294;BME280;1659;51.470;6.770;2022-12-18T03:19:41;102713.44;;;-5.21;90.91
3294;BME280;1659;51.470;6.770;2022-12-18T03:22:10;102716.13;;;-5.20;90.94
3294;BME280;1659;51.470;6.770;2022-12-18T03:24:37;102708.16;;;-5.23;90.76
3294;BME280;1659;51.470;6.770;2022-12-18T03:27:09;102716.13;;;-5.20;90.68
3294;BME280;1659;51.470;6.770;2022-12-18T03:29:38;102715.16;;;-5.10;90.92
3294;BME280;1659;51.470;6.770;2022-12-18T03:32:10;102712.91;;;-5.05;90.67
3294;BME280;1659;51.470;6.770;2022-12-18T03:34:40;102717.56;;;-5.01;90.69
3294;BME280;1659;51.470;6.770;2022-12-18T03:37:08;102716.22;;;-4.96;90.97
3294;BME280;1659;51.470;6.770;2022-12-18T03:39:35;102721.06;;;-4.89;90.39
3294;BME280;1659;51.470;6.770;2022-12-18T03:42:07;102712.75;;;-4.85;90.26
3294;BME280;1659;51.470;6.770;2022-12-18T03:44:41;102716.00;;;-4.76;90.51
3294;BME280;1659;51.470;6.770;2022-12-18T03:47:14;102711.97;;;-4.72;90.38
3294;BME280;1659;51.470;6.770;2022-12-18T03:49:46;102709.63;;;-4.69;90.61
3294;BME280;1659;51.470;6.770;2022-12-18T03:52:17;102709.75;;;-4.67;90.57
3294;BME280;1659;51.470;6.770;2022-12-18T03:54:47;102713.47;;;-4.64;90.46
3294;BME280;1659;51.470;6.770;2022-12-18T03:57:18;102707.84;;;-4.58;90.83
3294;BME280;1659;51.470;6.770;2022-12-18T03:59:47;102706.63;;;-4.51;90.38
3294;BME280;1659;51.470;6.770;2022-12-18T04:02:16;102709.31;;;-4.50;90.32
3294;BME280;1659;51.470;6.770;2022-12-18T04:04:44;102703.94;;;-4.41;90.44
3294;BME280;1659;51.470;6.770;2022-12-18T04:07:13;102699.00;;;-4.38;90.51
3294;BME280;1659;51.470;6.770;2022-12-18T04:09:41;102697.78;;;-4.31;90.04
3294;BME280;1659;51.470;6.770;2022-12-18T04:12:09;102697.97;;;-4.28;90.43
3294;BME280;1659;51.470;6.770;2022-12-18T04:14:37;102701.59;;;-4.26;90.19
3294;BME280;1659;51.470;6.770;2022-12-18T04:17:04;102699.78;;;-4.27;90.13
3294;BME280;1659;51.470;6.770;2022-12-18T04:19:30;102692.16;;;-4.26;90.25
3294;BME280;1659;51.470;6.770;2022-12-18T04:21:57;102703.72;;;-4.21;90.33
3294;BME280;1659;51.470;6.770;2022-12-18T04:24:23;102698.22;;;-4.13;90.05
3294;BME280;1659;51.470;6.770;2022-12-18T04:26:51;102693.16;;;-4.12;90.05
3294;BME280;1659;51.470;6.770;2022-12-18T04:29:17;102691.47;;;-4.11;90.27
3294;BME280;1659;51.470;6.770;2022-12-18T04:31:45;102694.28;;;-4.08;89.83
3294;BME280;1659;51.470;6.770;2022-12-18T04:34:12;102696.28;;;-4.04;89.87
3294;BME280;1659;51.470;6.770;2022-12-18T04:36:38;102687.88;;;-4.02;90.06
3294;BME280;1659;51.470;6.770;2022-12-18T04:39:05;102690.34;;;-4.03;89.78
3294;BME280;1659;51.470;6.770;2022-12-18T04:41:31;102685.72;;;-4.07;89.98
3294;BME280;1659;51.470;6.770;2022-12-18T04:43:58;102688.78;;;-4.13;90.06
3294;BME280;1659;51.470;6.770;2022-12-18T04:46:24;102683.19;;;-4.19;89.97
3294;BME280;1659;51.470;6.770;2022-12-18T04:48:52;102683.72;;;-4.23;90.30
3294;BME280;1659;51.470;6.770;2022-12-18T04:51:19;102686.00;;;-4.28;89.68
3294;BME280;1659;51.470;6.770;2022-12-18T04:53:45;102683.06;;;-4.32;90.36
3294;BME280;1659;51.470;6.770;2022-12-18T04:56:14;102682.94;;;-4.34;90.08
3294;BME280;1659;51.470;6.770;2022-12-18T04:58:42;102676.66;;;-4.38;90.01
3294;BME280;1659;51.470;6.770;2022-12-18T05:01:10;102678.25;;;-4.40;90.46
3294;BME280;1659;51.470;6.770;2022-12-18T05:03:37;102675.91;;;-4.37;90.34
3294;BME280;1659;51.470;6.770;2022-12-18T05:06:06;102669.16;;;-4.34;90.26
3294;BME280;1659;51.470;6.770;2022-12-18T05:08:33;102664.78;;;-4.36;90.33
3294;BME280;1659;51.470;6.770;2022-12-18T05:11:01;102664.88;;;-4.34;90.52
3294;BME280;1659;51.470;6.770;2022-12-18T05:13:29;102661.66;;;-4.31;90.12
3294;BME280;1659;51.470;6.770;2022-12-18T05:15:56;102663.88;;;-4.36;89.98
3294;BME280;1659;51.470;6.770;2022-12-18T05:18:22;102663.88;;;-4.48;89.92
3294;BME280;1659;51.470;6.770;2022-12-18T05:20:49;102664.91;;;-4.58;90.28
3294;BME280;1659;51.470;6.770;2022-12-18T05:23:17;102665.91;;;-4.67;90.01
3294;BME280;1659;51.470;6.770;2022-12-18T05:25:47;102672.97;;;-4.77;90.38
3294;BME280;1659;51.470;6.770;2022-12-18T05:28:16;102675.28;;;-4.91;89.97
3294;BME280;1659;51.470;6.770;2022-12-18T05:30:47;102677.63;;;-5.06;90.51
3294;BME280;1659;51.470;6.770;2022-12-18T05:33:13;102681.63;;;-5.22;89.92
3294;BME280;1659;51.470;6.770;2022-12-18T05:35:40;102697.72;;;-5.36;90.18
3294;BME280;1659;51.470;6.770;2022-12-18T05:38:06;102690.56;;;-5.51;90.31
3294;BME280;1659;51.470;6.770;2022-12-18T05:40:34;102688.84;;;-5.62;90.24
3294;BME280;1659;51.470;6.770;2022-12-18T05:43:01;102689.66;;;-5.73;89.91
3294;BME280;1659;51.470;6.770;2022-12-18T05:45:31;102698.25;;;-5.84;89.89
3294;BME280;1659;51.470;6.770;2022-12-18T05:47:57;102708.59;;;-5.95;90.36
3294;BME280;1659;51.470;6.770;2022-12-18T05:50:24;102712.16;;;-6.04;90.07
3294;BME280;1659;51.470;6.770;2022-12-18T05:52:50;102718.34;;;-6.13;90.27
3294;BME280;1659;51.470;6.770;2022-12-18T05:55:17;102715.06;;;-6.22;90.08
3294;BME280;1659;51.470;6.770;2022-12-18T05:57:45;102721.25;;;-6.30;90.20
3294;BME280;1659;51.470;6.770;2022-12-18T06:00:12;102721.25;;;-6.40;90.39
3294;BME280;1659;51.470;6.770;2022-12-18T06:02:39;102722.44;;;-6.47;90.20
3294;BME280;1659;51.470;6.770;2022-12-18T06:05:06;102735.56;;;-6.54;90.17
3294;BME280;1659;51.470;6.770;2022-12-18T06:07:33;102740.09;;;-6.62;90.46
3294;BME280;1659;51.470;6.770;2022-12-18T06:09:59;102745.59;;;-6.68;90.47
3294;BME280;1659;51.470;6.770;2022-12-18T06:12:26;102748.56;;;-6.73;90.52
3294;BME280;1659;51.470;6.770;2022-12-18T06:14:53;102751.53;;;-6.79;90.31
3294;BME280;1659;51.470;6.770;2022-12-18T06:17:20;102759.78;;;-6.83;90.13
3294;BME280;1659;51.470;6.770;2022-12-18T06:19:46;102757.56;;;-6.89;90.05
3294;BME280;1659;51.470;6.770;2022-12-18T06:22:13;102751.13;;;-6.94;90.23
3294;BME280;1659;51.470;6.770;2022-12-18T06:24:40;102748.81;;;-7.01;89.99
3294;BME280;1659;51.470;6.770;2022-12-18T06:27:06;102741.63;;;-7.05;90.33
3294;BME280;1659;51.470;6.770;2022-12-18T06:29:33;102736.09;;;-7.10;90.12
3294;BME280;1659;51.470;6.770;2022-12-18T06:32:00;102750.22;;;-7.15;90.42
3294;BME280;1659;51.470;6.770;2022-12-18T06:34:27;102735.19;;;-7.21;90.32
3294;BME280;1659;51.470;6.770;2022-12-18T06:36:56;102739.94;;;-7.25;90.43
3294;BME280;1659;51.470;6.770;2022-12-18T06:39:22;102725.03;;;-7.29;90.43
3294;BME280;1659;51.470;6.770;2022-12-18T06:41:49;102723.13;;;-7.32;90.56
3294;BME280;1659;51.470;6.770;2022-12-18T06:44:15;102720.28;;;-7.35;90.55
3294;BME280;1659;51.470;6.770;2022-12-18T06:46:42;102722.44;;;-7.40;90.39
3294;BME280;1659;51.470;6.770;2022-12-18T06:49:10;102714.47;;;-7.43;90.37
3294;BME280;1659;51.470;6.770;2022-12-18T06:51:36;102708.97;;;-7.47;90.33
3294;BME280;1659;51.470;6.770;2022-12-18T06:54:03;102703.44;;;-7.52;90.16
3294;BME280;1659;51.470;6.770;2022-12-18T06:56:30;102704.22;;;-7.53;90.19
3294;BME280;1659;51.470;6.770;2022-12-18T06:58:56;102693.66;;;-7.56;90.35
3294;BME280;1659;51.470;6.770;2022-12-18T07:01:23;102693.41;;;-7.59;90.12
3294;BME280;1659;51.470;6.770;2022-12-18T07:03:52;102691.50;;;-7.62;90.35
3294;BME280;1659;51.470;6.770;2022-12-18T07:06:22;102691.34;;;-7.63;90.06
3294;BME280;1659;51.470;6.770;2022-12-18T07:08:50;102697.09;;;-7.66;90.23
3294;BME280;1659;51.470;6.770;2022-12-18T07:11:18;102687.63;;;-7.67;90.17
3294;BME280;1659;51.470;6.770;2022-12-18T07:13:45;102696.34;;;-7.65;90.04
3294;BME280;1659;51.470;6.770;2022-12-18T07:16:14;102707.38;;;-7.66;89.86
3294;BME280;1659;51.470;6.770;2022-12-18T07:18:41;102700.47;;;-7.67;89.98
3294;BME280;1659;51.470;6.770;2022-12-18T07:21:09;102694.41;;;-7.67;89.90
3294;BME280;1659;51.470;6.770;2022-12-18T07:23:37;102696.22;;;-7.66;89.90
3294;BME280;1659;51.470;6.770;2022-12-18T07:26:06;102691.84;;;-7.67;89.98
3294;BME280;1659;51.470;6.770;2022-12-18T07:28:33;102694.41;;;-7.67;90.21
3294;BME280;1659;51.470;6.770;2022-12-18T07:31:02;102688.50;;;-7.66;89.99
3294;BME280;1659;51.470;6.770;2022-12-18T07:33:29;102680.06;;;-7.65;90.17
3294;BME280;1659;51.470;6.770;2022-12-18T07:35:55;102683.38;;;-7.66;90.13
3294;BME280;1659;51.470;6.770;2022-12-18T07:38:22;102671.56;;;-7.64;90.13
3294;BME280;1659;51.470;6.770;2022-12-18T07:40:50;102680.16;;;-7.64;90.03
3294;BME280;1659;51.470;6.770;2022-12-18T07:43:16;102680.28;;;-7.62;90.00
3294;BME280;1659;51.470;6.770;2022-12-18T07:45:43;102683.13;;;-7.59;90.12
3294;BME280;1659;51.470;6.770;2022-12-18T07:48:10;102691.25;;;-7.54;90.07
3294;BME280;1659;51.470;6.770;2022-12-18T07:50:37;102700.09;;;-7.51;89.70
3294;BME280;1659;51.470;6.770;2022-12-18T07:53:03;102691.88;;;-7.47;89.63
3294;BME280;1659;51.470;6.770;2022-12-18T07:55:30;102690.19;;;-7.46;89.56
3294;BME280;1659;51.470;6.770;2022-12-18T07:58:00;102690.09;;;-7.48;89.51
3294;BME280;1659;51.470;6.770;2022-12-18T08:00:28;102686.75;;;-7.47;89.70
3294;BME280;1659;51.470;6.770;2022-12-18T08:02:54;102684.19;;;-7.47;89.66
3294;BME280;1659;51.470;6.770;2022-12-18T08:05:21;102678.41;;;-7.44;89.79
3294;BME280;1659;51.470;6.770;2022-12-18T08:07:47;102673.53;;;-7.41;89.63
3294;BME280;1659;51.470;6.770;2022-12-18T08:10:14;102662.63;;;-7.38;89.75
3294;BME280;1659;51.470;6.770;2022-12-18T08:12:41;102663.66;;;-7.26;89.96
3294;BME280;1659;51.470;6.770;2022-12-18T08:15:09;102655.41;;;-6.81;90.19
3294;BME280;1659;51.470;6.770;2022-12-18T08:17:36;102655.81;;;-6.44;89.81
3294;BME280;1659;51.470;6.770;2022-12-18T08:20:03;102656.94;;;-6.08;88.96
3294;BME280;1659;51.470;6.770;2022-12-18T08:22:29;102653.63;;;-5.73;88.57
3294;BME280;1659;51.470;6.770;2022-12-18T08:24:56;102631.78;;;-5.44;88.27
3294;BME280;1659;51.470;6.770;2022-12-18T08:27:22;102629.97;;;-5.12;87.76
3294;BME280;1659;51.470;6.770;2022-12-18T08:29:49;102618.44;;;-4.81;87.84
3294;BME280;1659;51.470;6.770;2022-12-18T08:32:17;102621.25;;;-4.55;87.58
3294;BME280;1659;51.470;6.770;2022-12-18T08:34:43;102612.91;;;-4.27;87.66
3294;BME280;1659;51.470;6.770;2022-12-18T08:37:10;102607.94;;;-4.00;87.48
3294;BME280;1659;51.470;6.770;2022-12-18T08:39:36;102604.09;;;-3.68;87.66
3294;BME280;1659;51.470;6.770;2022-12-18T08:42:03;102599.84;;;-3.29;87.33
3294;BME280;1659;51.470;6.770;2022-12-18T08:44:47;102612.06;;;-2.88;87.40
3294;BME280;1659;51.470;6.770;2022-12-18T08:47:14;102617.81;;;-2.52;87.43
3294;BME280;1659;51.470;6.770;2022-12-18T08:49:41;102605.94;;;-2.22;87.14
3294;BME280;1659;51.470;6.770;2022-12-18T08:52:08;102614.72;;;-1.92;87.31
3294;BME280;1659;51.470;6.770;2022-12-18T08:54:35;102606.22;;;-1.61;87.63
3294;BME280;1659;51.470;6.770;2022-12-18T08:57:01;102601.50;;;-1.38;87.56
3294;BME280;1659;51.470;6.770;2022-12-18T08:59:28;102608.25;;;-1.12;87.95
3294;BME280;1659;51.470;6.770;2022-12-18T09:01:54;102602.88;;;-0.85;87.95
3294;BME280;1659;51.470;6.770;2022-12-18T09:04:21;102594.78;;;-0.60;87.82
3294;BME280;1659;51.470;6.770;2022-12-18T09:06:49;102593.59;;;-0.50;87.79
3294;BME280;1659;51.470;6.770;2022-12-18T09:09:15;102583.91;;;-0.38;87.30
3294;BME280;1659;51.470;6.770;2022-12-18T09:11:42;102579.03;;;-0.32;87.59
3294;BME280;1659;51.470;6.770;2022-12-18T09:14:09;102579.19;;;-0.29;87.76
3294;BME280;1659;51.470;6.770;2022-12-18T09:16:36;102585.44;;;-0.25;88.06
3294;BME280;1659;51.470;6.770;2022-12-18T09:19:04;102584.75;;;-0.23;87.73
3294;BME280;1659;51.470;6.770;2022-12-18T09:21:32;102584.88;;;-0.20;88.41
3294;BME280;1659;51.470;6.770;2022-12-18T09:24:00;102582.16;;;-0.23;88.53
3294;BME280;1659;51.470;6.770;2022-12-18T09:26:27;102574.34;;;-0.23;89.11
3294;BME280;1659;51.470;6.770;2022-12-18T09:28:53;102584.19;;;-0.17;89.57
3294;BME280;1659;51.470;6.770;2022-12-18T09:31:22;102582.16;;;0.10;89.84
3294;BME280;1659;51.470;6.770;2022-12-18T09:33:49;102574.94;;;0.37;89.45
3294;BME280;1659;51.470;6.770;2022-12-18T09:36:17;102583.28;;;0.48;89.18
3294;BME280;1659;51.470;6.770;2022-12-18T09:38:44;102588.22;;;0.60;89.08
3294;BME280;1659;51.470;6.770;2022-12-18T09:41:26;102595.91;;;0.75;89.30
3294;BME280;1659;51.470;6.770;2022-12-18T09:43:59;102582.41;;;0.82;88.58
3294;BME280;1659;51.470;6.770;2022-12-18T09:46:30;102580.78;;;0.84;88.22
3294;BME280;1659;51.470;6.770;2022-12-18T09:49:01;102571.50;;;0.89;88.16
3294;BME280;1659;51.470;6.770;2022-12-18T09:51:33;102556.84;;;0.91;88.49
3294;BME280;1659;51.470;6.770;2022-12-18T09:54:05;102541.16;;;0.90;88.52
3294;BME280;1659;51.470;6.770;2022-12-18T09:56:38;102548.06;;;0.89;87.76
3294;BME280;1659;51.470;6.770;2022-12-18T09:59:17;102553.28;;;0.89;87.98
3294;BME280;1659;51.470;6.770;2022-12-18T10:01:45;102562.78;;;0.89;87.04
3294;BME280;1659;51.470;6.770;2022-12-18T10:04:11;102551.72;;;0.93;86.83
3294;BME280;1659;51.470;6.770;2022-12-18T10:06:43;102548.53;;;0.99;87.33
3294;BME280;1659;51.470;6.770;2022-12-18T10:09:19;102535.06;;;1.07;86.08
3294;BME280;1659;51.470;6.770;2022-12-18T10:11:55;102527.59;;;1.15;85.83
3294;BME280;1659;51.470;6.770;2022-12-18T10:14:30;102532.34;;;1.24;85.53
3294;BME280;1659;51.470;6.770;2022-12-18T10:17:06;102537.13;;;1.32;84.64
3294;BME280;1659;51.470;6.770;2022-12-18T10:19:39;102541.75;;;1.38;84.74
3294;BME280;1659;51.470;6.770;2022-12-18T10:22:21;102523.72;;;1.43;84.23
3294;BME280;1659;51.470;6.770;2022-12-18T10:24:54;102516.28;;;1.50;83.45
3294;BME280;1659;51.470;6.770;2022-12-18T10:27:24;102520.03;;;1.57;83.17
3294;BME280;1659;51.470;6.770;2022-12-18T10:29:52;102502.72;;;1.58;82.25
3294;BME280;1659;51.470;6.770;2022-12-18T10:32:21;102503.66;;;1.60;81.64
3294;BME280;1659;51.470;6.770;2022-12-18T10:34:49;102506.50;;;1.64;81.10
3294;BME280;1659;51.470;6.770;2022-12-18T10:37:18;102495.53;;;1.72;79.65
3294;BME280;1659;51.470;6.770;2022-12-18T10:39:45;102495.78;;;1.78;78.19
3294;BME280;1659;51.470;6.770;2022-12-18T10:42:17;102496.19;;;1.87;77.54
3294;BME280;1659;51.470;6.770;2022-12-18T10:44:45;102499.22;;;1.96;75.27
3294;BME280;1659;51.470;6.770;2022-12-18T10:47:15;102496.06;;;2.03;73.76
3294;BME280;1659;51.470;6.770;2022-12-18T10:49:48;102480.66;;;2.10;73.67
3294;BME280;1659;51.470;6.770;2022-12-18T10:52:17;102472.31;;;2.17;74.08
3294;BME280;1659;51.470;6.770;2022-12-18T10:54:49;102475.16;;;2.23;73.00
3294;BME280;1659;51.470;6.770;2022-12-18T10:57:28;102477.06;;;2.27;72.67
3294;BME280;1659;51.470;6.770;2022-12-18T10:59:59;102464.00;;;2.25;70.76
3294;BME280;1659;51.470;6.770;2022-12-18T11:02:28;102474.22;;;2.21;70.99
3294;BME280;1659;51.470;6.770;2022-12-18T11:04:59;102474.00;;;2.16;69.87
3294;BME280;1659;51.470;6.770;2022-12-18T11:07:46;102461.81;;;2.15;70.24
3294;BME280;1659;51.470;6.770;2022-12-18T11:10:16;102463.56;;;2.16;70.60
3294;BME280;1659;51.470;6.770;2022-12-18T11:12:44;102474.00;;;2.16;70.53
3294;BME280;1659;51.470;6.770;2022-12-18T11:15:16;102468.84;;;2.18;69.87
3294;BME280;1659;51.470;6.770;2022-12-18T11:17:47;102456.69;;;2.18;69.65
3294;BME280;1659;51.470;6.770;2022-12-18T11:20:27;102445.38;;;2.18;69.08
3294;BME280;1659;51.470;6.770;2022-12-18T11:22:58;102442.78;;;2.18;68.93
3294;BME280;1659;51.470;6.770;2022-12-18T11:25:26;102448.13;;;2.21;69.00
3294;BME280;1659;51.470;6.770;2022-12-18T11:27:58;102445.53;;;2.21;68.60
3294;BME280;1659;51.470;6.770;2022-12-18T11:30:28;102440.25;;;2.19;66.53
3294;BME280;1659;51.470;6.770;2022-12-18T11:32:59;102432.34;;;2.18;65.68
3294;BME280;1659;51.470;6.770;2022-12-18T11:35:35;102434.13;;;2.19;65.21
3294;BME280;1659;51.470;6.770;2022-12-18T11:38:09;102416.63;;;2.16;64.86
3294;BME280;1659;51.470;6.770;2022-12-18T11:40:38;102408.88;;;2.18;65.26
3294;BME280;1659;51.470;6.770;2022-12-18T11:43:10;102417.53;;;2.17;65.18
3294;BME280;1659;51.470;6.770;2022-12-18T11:45:42;102413.06;;;2.14;64.83
3294;BME280;1659;51.470;6.770;2022-12-18T11:48:15;102410.31;;;2.11;65.59
3294;BME280;1659;51.470;6.770;2022-12-18T11:50:49;102415.47;;;2.10;65.34
3294;BME280;1659;51.470;6.770;2022-12-18T11:53:17;102402.44;;;2.10;66.02
3294;BME280;1659;51.470;6.770;2022-12-18T11:55:51;102414.59;;;2.09;66.53
3294;BME280;1659;51.470;6.770;2022-12-18T11:58:32;102407.59;;;2.08;66.52
3294;BME280;1659;51.470;6.770;2022-12-18T12:01:14;102410.22;;;2.08;66.12
3294;BME280;1659;51.470;6.770;2022-12-18T12:04:16;102411.91;;;2.07;66.61
3294;BME280;1659;51.470;6.770;2022-12-18T12:06:51;102408.50;;;2.08;67.20
3294;BME280;1659;51.470;6.770;2022-12-18T12:09:26;102402.44;;;2.10;67.21
3294;BME280;1659;51.470;6.770;2022-12-18T12:12:11;102404.09;;;2.07;67.52
3294;BME280;1659;51.470;6.770;2022-12-18T12:14:46;102402.31;;;2.06;67.07
3294;BME280;1659;51.470;6.770;2022-12-18T12:17:25;102409.16;;;2.04;67.19
3294;BME280;1659;51.470;6.770;2022-12-18T12:20:00;102398.72;;;2.04;66.41
3294;BME280;1659;51.470;6.770;2022-12-18T12:22:34;102386.41;;;2.00;66.22
3294;BME280;1659;51.470;6.770;2022-12-18T12:25:19;102378.50;;;1.99;66.12
3294;BME280;1659;51.470;6.770;2022-12-18T12:27:54;102374.06;;;1.96;65.62
3294;BME280;1659;51.470;6.770;2022-12-18T12:30:30;102374.88;;;1.95;65.13
3294;BME280;1659;51.470;6.770;2022-12-18T12:33:13;102382.63;;;1.94;65.00
3294;BME280;1659;51.470;6.770;2022-12-18T12:35:47;102382.56;;;1.92;64.79
3294;BME280;1659;51.470;6.770;2022-12-18T12:38:21;102383.41;;;1.91;65.13
3294;BME280;1659;51.470;6.770;2022-12-18T12:40:52;102379.94;;;1.91;65.30
3294;BME280;1659;51.470;6.770;2022-12-18T12:43:25;102373.72;;;1.88;64.23
3294;BME280;1659;51.470;6.770;2022-12-18T12:45:55;102373.66;;;1.87;64.74
3294;BME280;1659;51.470;6.770;2022-12-18T12:48:34;102360.53;;;1.84;64.49
3294;BME280;1659;51.470;6.770;2022-12-18T12:51:08;102363.06;;;1.82;64.74
3294;BME280;1659;51.470;6.770;2022-12-18T12:53:37;102353.38;;;1.80;64.35
3294;BME280;1659;51.470;6.770;2022-12-18T12:56:07;102358.50;;;1.78;64.95
3294;BME280;1659;51.470;6.770;2022-12-18T12:58:41;102381.94;;;1.77;64.78
3294;BME280;1659;51.470;6.770;2022-12-18T13:01:18;102366.97;;;1.73;64.28
3294;BME280;1659;51.470;6.770;2022-12-18T13:03:57;102365.94;;;1.69;64.64
3294;BME280;1659;51.470;6.770;2022-12-18T13:06:37;102368.41;;;1.66;63.53
3294;BME280;1659;51.470;6.770;2022-12-18T13:09:07;102372.59;;;1.62;63.30
3294;BME280;1659;51.470;6.770;2022-12-18T13:11:39;102369.88;;;1.59;64.40
3294;BME280;1659;51.470;6.770;2022-12-18T13:14:28;102366.28;;;1.57;64.31
3294;BME280;1659;51.470;6.770;2022-12-18T13:17:27;102355.00;;;1.57;63.78
3294;BME280;1659;51.470;6.770;2022-12-18T13:20:21;102350.66;;;1.57;64.09
3294;BME280;1659;51.470;6.770;2022-12-18T13:22:49;102344.50;;;1.55;64.36
3294;BME280;1659;51.470;6.770;2022-12-18T13:25:31;102342.66;;;1.53;63.75
3294;BME280;1659;51.470;6.770;2022-12-18T13:28:08;102334.78;;;1.51;63.20
3294;BME280;1659;51.470;6.770;2022-12-18T13:30:44;102330.31;;;1.48;62.89